Stoney Point, Missouri
Current Conditions -  °F | °C
As of 5:35 PM on Wednesday 22 Oct 2014 (Local Time) from KFAM Reporting Station
Clear Clear  
Wind Chill: 16°   Ceiling: Unl
Heat Index: 16°   Visibility: 10mi
Dew Point:   Wind: 7mph
Humidity: 52%   Direction: 70°ENE
Pressure: 30.23"   Gusts: NA
Location:  37.9132°N, 90.7°W
Report Text: KFAM 222235Z AUTO 07006KT 10SM CLR 16/06 A3023 RMK AO1
Loading
Personal Weather Stations






























Interactive Weather Map
Tropical Storm Tracking
New forecast layout! Learn more

10-Day Weather Forecast

Advertisements
Track Severe Weather on mobile